Time;durP1;ratioP1;P1;durP2;ratioP2;P2;SDS_P1;SDS_P2;PMS_P1;PMS_P2;Temp;Humidity;BMP_temperature;BMP_pressure;BME280_temperature;BME280_humidity;BME280_pressure;Samples;Min_cycle;Max_cycle;Signal;HPM_P1;HPM_P2
2023/10/26 00:01:27;;;;;;;0.60;0.60;;;10.80;99.90;;;;;;5053128;28;20214;-80
2023/10/26 00:03:55;;;;;;;0.93;0.82;;;10.80;99.90;;;;;;5052967;28;20196;-79
2023/10/26 00:06:23;;;;;;;0.88;0.88;;;10.90;99.90;;;;;;5051550;28;20663;-79
2023/10/26 00:08:52;;;;;;;0.90;0.90;;;10.90;99.90;;;;;;5051622;28;20204;-78
2023/10/26 00:11:21;;;;;;;1.70;0.88;;;10.90;99.90;;;;;;5050623;28;20239;-78
2023/10/26 00:13:49;;;;;;;0.75;0.70;;;10.90;99.90;;;;;;5054914;28;20208;-80
2023/10/26 00:16:17;;;;;;;0.68;0.68;;;10.90;99.90;;;;;;5055831;28;20200;-78
2023/10/26 00:18:45;;;;;;;0.95;0.85;;;10.80;99.90;;;;;;5061238;28;20204;-77
2023/10/26 00:21:13;;;;;;;0.80;0.70;;;10.80;99.90;;;;;;5054834;28;20236;-79
2023/10/26 00:23:41;;;;;;;1.10;1.00;;;10.80;99.90;;;;;;5055234;28;20211;-78
2023/10/26 00:26:09;;;;;;;0.98;0.85;;;10.70;99.90;;;;;;5055181;28;20219;-78
2023/10/26 00:28:39;;;;;;;1.50;0.85;;;10.70;99.90;;;;;;5054990;28;20223;-78
2023/10/26 00:31:07;;;;;;;1.23;0.90;;;10.70;99.90;;;;;;5055592;28;20226;-79
2023/10/26 00:33:35;;;;;;;1.00;0.90;;;10.70;99.90;;;;;;5056761;28;20208;-79
2023/10/26 00:36:04;;;;;;;1.00;0.90;;;10.70;99.90;;;;;;5056087;28;20619;-78
2023/10/26 00:38:32;;;;;;;0.80;0.73;;;10.70;99.90;;;;;;5047940;28;20704;-78
2023/10/26 00:41:00;;;;;;;0.70;0.70;;;10.70;99.90;;;;;;5055098;28;20269;-79
2023/10/26 00:43:28;;;;;;;0.80;0.68;;;10.70;99.90;;;;;;5055102;28;20682;-78
2023/10/26 00:45:57;;;;;;;1.42;1.05;;;10.60;99.90;;;;;;5055717;28;20207;-79
2023/10/26 00:48:26;;;;;;;0.88;0.70;;;10.70;99.90;;;;;;5060267;28;20277;-80
2023/10/26 00:50:54;;;;;;;0.80;0.70;;;10.60;99.90;;;;;;5062178;28;20202;-79
2023/10/26 00:53:23;;;;;;;1.20;0.88;;;10.60;99.90;;;;;;5061320;28;20228;-80
2023/10/26 00:55:52;;;;;;;1.35;1.17;;;10.60;99.90;;;;;;5061224;28;20650;-80
2023/10/26 00:58:22;;;;;;;1.08;1.05;;;10.50;99.90;;;;;;5061675;28;20232;-81
2023/10/26 01:00:50;;;;;;;1.10;1.00;;;10.50;99.90;;;;;;5068739;28;20224;-80
2023/10/26 01:03:20;;;;;;;0.80;0.80;;;10.50;99.90;;;;;;5061408;28;20223;-80
2023/10/26 01:05:49;;;;;;;0.95;0.95;;;10.50;99.90;;;;;;5061253;28;20245;-80
2023/10/26 01:08:17;;;;;;;1.10;1.00;;;10.40;99.90;;;;;;5061577;28;20262;-80
2023/10/26 01:10:45;;;;;;;1.10;1.00;;;10.40;99.90;;;;;;5067394;28;20207;-80
2023/10/26 01:13:14;;;;;;;0.80;0.80;;;10.30;99.90;;;;;;5059704;28;20219;-80
2023/10/26 01:15:42;;;;;;;1.23;0.98;;;10.30;99.90;;;;;;5060124;28;20200;-80
2023/10/26 01:18:10;;;;;;;1.00;0.90;;;10.30;99.90;;;;;;5066555;28;20234;-81
2023/10/26 01:20:42;;;;;;;1.75;0.90;;;10.30;99.90;;;;;;5062750;28;20216;-80
2023/10/26 01:23:12;;;;;;;1.17;1.08;;;10.30;99.90;;;;;;5062303;28;20234;-79
2023/10/26 01:25:40;;;;;;;1.40;1.30;;;10.40;99.90;;;;;;5060365;28;20235;-80
2023/10/26 01:28:08;;;;;;;1.20;1.10;;;10.40;99.90;;;;;;5062117;28;20732;-80
2023/10/26 01:30:36;;;;;;;2.85;1.27;;;10.50;99.90;;;;;;5054152;28;20223;-80
2023/10/26 01:33:04;;;;;;;1.10;1.00;;;10.60;99.90;;;;;;5062823;28;20215;-80
2023/10/26 01:35:38;;;;;;;1.00;0.90;;;10.60;99.90;;;;;;5061982;28;20223;-80
2023/10/26 01:38:06;;;;;;;1.05;1.00;;;10.60;99.90;;;;;;5060590;28;20282;-79
2023/10/26 01:40:35;;;;;;;1.10;1.00;;;10.60;99.90;;;;;;5060227;28;20223;-80
2023/10/26 01:43:03;;;;;;;1.20;1.05;;;10.60;99.90;;;;;;5061481;28;20208;-80
2023/10/26 01:45:31;;;;;;;1.13;0.90;;;10.60;99.90;;;;;;5069463;28;20212;-79
2023/10/26 01:48:02;;;;;;;1.30;1.20;;;10.70;99.90;;;;;;5061644;28;20228;-79
2023/10/26 01:50:54;;;;;;;1.15;1.05;;;10.60;99.90;;;;;;5055058;28;20192;-81
2023/10/26 01:53:23;;;;;;;1.10;1.00;;;10.70;99.90;;;;;;5062633;28;20211;-81
2023/10/26 01:55:53;;;;;;;1.30;1.20;;;10.70;99.90;;;;;;5060573;28;20212;-79
2023/10/26 01:58:21;;;;;;;1.45;1.20;;;10.60;99.90;;;;;;5068580;28;20238;-80
2023/10/26 02:00:49;;;;;;;1.75;1.20;;;10.70;99.90;;;;;;5060053;28;20216;-83
2023/10/26 02:03:18;;;;;;;1.38;1.27;;;10.70;99.90;;;;;;5063147;28;20270;-80
2023/10/26 02:05:46;;;;;;;1.35;1.25;;;10.70;99.90;;;;;;5060248;28;20254;-81
2023/10/26 02:08:14;;;;;;;1.65;1.55;;;10.60;99.90;;;;;;5061415;28;20270;-83
2023/10/26 02:10:42;;;;;;;1.95;1.85;;;10.60;99.90;;;;;;5056797;28;20199;-78
2023/10/26 02:13:12;;;;;;;1.42;1.33;;;10.60;99.90;;;;;;5053571;28;20219;-78
2023/10/26 02:15:40;;;;;;;1.38;1.27;;;10.60;99.90;;;;;;5045049;28;20200;-79
2023/10/26 02:18:08;;;;;;;1.67;1.58;;;10.60;99.90;;;;;;5054035;28;20231;-79
2023/10/26 02:20:36;;;;;;;2.45;2.15;;;10.60;99.90;;;;;;5052543;28;20716;-79
2023/10/26 02:23:04;;;;;;;1.60;1.40;;;10.60;99.90;;;;;;5061611;28;20200;-79
2023/10/26 02:25:32;;;;;;;1.40;1.30;;;10.70;99.90;;;;;;5055452;28;20200;-78
2023/10/26 02:28:00;;;;;;;5.43;2.50;;;10.60;99.90;;;;;;5058605;28;20219;-79
2023/10/26 02:30:30;;;;;;;1.77;1.67;;;10.60;99.90;;;;;;5052724;28;20573;-79
2023/10/26 02:32:58;;;;;;;2.95;2.05;;;10.60;99.90;;;;;;5054211;28;20204;-78
2023/10/26 02:35:26;;;;;;;2.20;2.00;;;10.60;99.90;;;;;;5066827;28;20211;-81
2023/10/26 02:37:54;;;;;;;1.63;1.52;;;10.70;99.90;;;;;;5060842;28;20231;-80
2023/10/26 02:40:22;;;;;;;2.28;2.08;;;10.60;99.90;;;;;;5061472;28;20230;-81
2023/10/26 02:42:50;;;;;;;2.92;2.65;;;10.60;99.90;;;;;;5056752;28;20204;-80
2023/10/26 02:45:18;;;;;;;2.35;2.15;;;10.60;99.90;;;;;;5067832;28;20196;-78
2023/10/26 02:47:48;;;;;;;2.67;2.47;;;10.60;99.90;;;;;;5061118;28;20247;-81
2023/10/26 02:50:16;;;;;;;2.83;2.40;;;10.50;99.90;;;;;;5061505;28;20267;-81
2023/10/26 02:52:44;;;;;;;2.35;1.88;;;10.50;99.90;;;;;;5061548;28;20230;-81
2023/10/26 02:55:12;;;;;;;2.40;2.20;;;10.50;99.90;;;;;;5062524;28;20212;-81
2023/10/26 02:57:40;;;;;;;1.88;1.70;;;10.50;99.90;;;;;;5060973;28;20220;-82
2023/10/26 03:00:09;;;;;;;2.65;2.45;;;10.50;99.90;;;;;;5060546;28;20212;-82
2023/10/26 03:02:37;;;;;;;1.85;1.75;;;10.50;99.90;;;;;;5060827;28;20628;-80
2023/10/26 03:05:08;;;;;;;2.10;1.90;;;10.60;99.90;;;;;;5060557;28;20204;-82
2023/10/26 03:07:36;;;;;;;2.70;2.50;;;10.50;99.90;;;;;;5059414;28;20246;-81
2023/10/26 03:10:06;;;;;;;2.60;2.40;;;10.60;99.90;;;;;;5057498;28;20208;-79
2023/10/26 03:12:34;;;;;;;2.30;2.10;;;10.50;99.90;;;;;;5051579;28;20675;-78
2023/10/26 03:15:02;;;;;;;1.73;1.45;;;10.50;99.90;;;;;;5051584;28;20204;-78
2023/10/26 03:17:30;;;;;;;3.45;2.38;;;10.60;99.90;;;;;;5058792;28;20257;-78
2023/10/26 03:19:58;;;;;;;2.45;2.25;;;10.60;99.90;;;;;;5055239;28;20200;-80
2023/10/26 03:22:27;;;;;;;2.83;2.55;;;10.60;99.90;;;;;;5055422;28;20230;-81
2023/10/26 03:24:55;;;;;;;2.50;2.30;;;10.50;99.90;;;;;;5054836;28;20200;-81
2023/10/26 03:27:23;;;;;;;2.45;2.25;;;10.50;99.90;;;;;;5053755;28;20717;-79
2023/10/26 03:29:51;;;;;;;2.92;2.33;;;10.60;99.90;;;;;;5054633;28;20196;-80
2023/10/26 03:32:19;;;;;;;2.28;2.08;;;10.60;99.90;;;;;;5053958;28;20211;-79
2023/10/26 03:34:48;;;;;;;2.05;1.85;;;10.50;99.90;;;;;;5046811;28;20204;-81
2023/10/26 03:37:16;;;;;;;2.13;1.92;;;10.60;99.90;;;;;;5055043;28;20235;-80
2023/10/26 03:39:46;;;;;;;2.58;1.95;;;10.60;99.90;;;;;;5054223;28;20295;-79
2023/10/26 03:42:14;;;;;;;2.22;2.03;;;10.70;99.90;;;;;;5054863;28;20273;-81
2023/10/26 03:44:42;;;;;;;2.50;2.30;;;10.60;99.90;;;;;;5054624;28;20791;-82
2023/10/26 03:47:10;;;;;;;2.60;2.35;;;10.60;99.90;;;;;;5054206;28;20228;-80
2023/10/26 03:49:38;;;;;;;2.83;2.63;;;10.50;99.90;;;;;;5050587;28;20301;-79
2023/10/26 03:52:06;;;;;;;3.03;2.65;;;10.60;99.90;;;;;;5051013;28;20208;-78
2023/10/26 03:54:35;;;;;;;1.67;1.58;;;10.50;99.90;;;;;;5050713;28;20216;-79
2023/10/26 03:57:06;;;;;;;2.15;2.00;;;10.60;99.90;;;;;;5051011;28;20220;-79
2023/10/26 03:59:34;;;;;;;2.85;2.60;;;10.60;99.90;;;;;;5053473;28;20299;-81
2023/10/26 04:02:02;;;;;;;2.30;2.10;;;10.60;99.90;;;;;;5053611;28;20227;-81
2023/10/26 04:04:31;;;;;;;2.53;2.33;;;10.50;99.90;;;;;;5053229;28;20273;-80
2023/10/26 04:06:59;;;;;;;2.90;2.60;;;10.50;99.90;;;;;;5052325;28;20240;-79
2023/10/26 04:09:27;;;;;;;4.60;3.17;;;10.30;99.90;;;;;;5052706;28;20258;-79
2023/10/26 04:11:55;;;;;;;3.15;2.85;;;10.20;99.90;;;;;;5053771;28;20200;-82
2023/10/26 04:14:25;;;;;;;2.78;2.58;;;10.20;99.90;;;;;;5053369;28;20212;-78
2023/10/26 04:16:53;;;;;;;4.47;3.20;;;10.20;99.90;;;;;;5045713;28;20302;-78
2023/10/26 04:19:21;;;;;;;4.88;3.53;;;10.20;99.90;;;;;;5051341;28;20232;-79
2023/10/26 04:21:49;;;;;;;3.58;3.28;;;10.10;99.90;;;;;;5051153;28;20223;-79
2023/10/26 04:24:17;;;;;;;3.95;3.30;;;10.20;99.90;;;;;;5051157;28;20204;-78
2023/10/26 04:26:45;;;;;;;3.78;3.47;;;10.10;99.90;;;;;;5053267;28;20245;-79
2023/10/26 04:29:13;;;;;;;4.45;4.03;;;10.00;99.90;;;;;;5056067;28;20226;-79
2023/10/26 04:31:42;;;;;;;4.10;3.70;;;10.00;99.90;;;;;;5060211;28;20212;-79
2023/10/26 04:34:10;;;;;;;4.20;3.80;;;10.00;99.90;;;;;;5052039;28;20207;-79
2023/10/26 04:36:38;;;;;;;3.50;3.20;;;9.90;99.90;;;;;;5059907;28;20314;-79
2023/10/26 04:39:08;;;;;;;3.97;3.58;;;9.90;99.90;;;;;;5051924;28;20208;-79
2023/10/26 04:41:36;;;;;;;4.13;3.80;;;10.00;99.90;;;;;;5053620;28;20215;-78
2023/10/26 04:44:05;;;;;;;3.35;3.05;;;10.00;99.90;;;;;;5055087;28;20215;-77
2023/10/26 04:46:33;;;;;;;3.15;2.80;;;10.00;99.90;;;;;;5049765;28;20686;-77
2023/10/26 04:49:03;;;;;;;3.40;3.10;;;10.10;99.90;;;;;;5050428;28;20274;-75
2023/10/26 04:51:32;;;;;;;2.90;2.50;;;10.20;99.90;;;;;;5050418;28;20208;-77
2023/10/26 04:54:00;;;;;;;2.95;2.75;;;10.30;99.90;;;;;;5044010;28;20207;-77
2023/10/26 04:56:28;;;;;;;3.85;3.53;;;10.20;99.90;;;;;;5039842;28;20226;-79
2023/10/26 04:58:56;;;;;;;3.60;3.30;;;10.40;99.90;;;;;;5041923;28;20212;-78
2023/10/26 05:01:24;;;;;;;3.40;3.10;;;10.40;99.90;;;;;;5043531;28;20222;-79
2023/10/26 05:03:53;;;;;;;3.75;3.15;;;10.40;99.90;;;;;;5044773;28;20250;-79
2023/10/26 05:06:22;;;;;;;3.35;3.05;;;10.40;99.90;;;;;;5044343;28;20240;-78
2023/10/26 05:08:51;;;;;;;3.83;3.53;;;10.50;99.90;;;;;;5043892;28;20299;-79
2023/10/26 05:11:19;;;;;;;3.75;3.42;;;10.50;99.90;;;;;;5043549;28;20204;-78
2023/10/26 05:13:48;;;;;;;3.65;3.20;;;10.40;99.90;;;;;;5044419;28;20214;-79
2023/10/26 05:16:17;;;;;;;3.10;2.72;;;10.40;99.90;;;;;;5043842;28;20291;-79
2023/10/26 05:18:45;;;;;;;2.35;2.15;;;10.30;99.90;;;;;;5043488;28;20218;-79
2023/10/26 05:21:13;;;;;;;3.83;3.53;;;10.40;99.90;;;;;;5043445;28;20910;-79
2023/10/26 05:23:43;;;;;;;5.63;4.18;;;10.40;99.90;;;;;;5044030;28;20603;-79
2023/10/26 05:26:11;;;;;;;3.13;2.83;;;10.30;99.90;;;;;;5042848;28;20697;-77
2023/10/26 05:28:39;;;;;;;4.03;3.00;;;10.40;99.90;;;;;;5043068;28;20321;-79
2023/10/26 05:31:07;;;;;;;2.80;2.55;;;10.40;99.90;;;;;;5043055;28;21007;-79
2023/10/26 05:33:35;;;;;;;3.40;3.10;;;10.40;99.90;;;;;;5042986;28;20599;-79
2023/10/26 05:36:04;;;;;;;2.40;2.20;;;10.30;99.90;;;;;;5043522;28;20208;-78
2023/10/26 05:38:32;;;;;;;3.92;2.88;;;10.40;99.90;;;;;;5043052;28;20231;-78
2023/10/26 05:41:02;;;;;;;2.65;2.45;;;10.50;99.90;;;;;;5043204;28;20215;-78
2023/10/26 05:43:30;;;;;;;3.40;3.10;;;10.50;99.90;;;;;;5043065;28;20228;-77
2023/10/26 05:46:03;;;;;;;3.17;2.92;;;10.60;99.90;;;;;;5042750;28;20215;-77
2023/10/26 05:48:33;;;;;;;2.78;2.58;;;10.60;99.90;;;;;;5043592;28;20240;-77
2023/10/26 05:51:02;;;;;;;3.70;2.83;;;10.60;99.90;;;;;;5043503;28;20204;-76
2023/10/26 05:53:30;;;;;;;2.33;2.22;;;10.50;99.90;;;;;;5044008;28;20243;-77
2023/10/26 05:55:59;;;;;;;2.50;2.30;;;10.40;99.90;;;;;;5042710;28;20273;-78
2023/10/26 05:58:29;;;;;;;2.38;2.22;;;10.40;99.90;;;;;;5041990;28;20224;-74
2023/10/26 06:00:57;;;;;;;2.40;2.20;;;10.30;99.90;;;;;;5043318;28;20208;-77
2023/10/26 06:03:26;;;;;;;4.07;2.30;;;10.30;99.90;;;;;;5042741;28;20223;-79
2023/10/26 06:05:59;;;;;;;2.50;2.30;;;10.40;99.90;;;;;;5042600;28;20207;-77
2023/10/26 06:08:27;;;;;;;2.40;2.20;;;10.60;99.90;;;;;;5042425;28;20243;-77
2023/10/26 06:10:57;;;;;;;3.15;2.47;;;10.60;99.90;;;;;;5041689;28;20223;-78
2023/10/26 06:13:26;;;;;;;2.38;2.17;;;10.70;99.90;;;;;;5043453;28;20301;-81
2023/10/26 06:15:55;;;;;;;2.20;2.00;;;10.70;99.90;;;;;;5043004;28;20210;-76
2023/10/26 06:18:23;;;;;;;2.50;2.30;;;10.80;99.90;;;;;;5042946;28;20303;-78
2023/10/26 06:20:58;;;;;;;2.40;1.80;;;10.80;99.90;;;;;;5042357;28;20210;-78
2023/10/26 06:23:28;;;;;;;2.13;2.03;;;10.80;99.90;;;;;;5042690;28;20219;-78
2023/10/26 06:25:59;;;;;;;1.98;1.88;;;10.70;99.90;;;;;;5051402;28;20583;-78
2023/10/26 06:28:28;;;;;;;3.08;2.42;;;10.70;99.90;;;;;;5052229;28;20235;-79
2023/10/26 06:31:08;;;;;;;1.90;1.80;;;10.70;99.90;;;;;;5051979;28;20222;-80
2023/10/26 06:33:37;;;;;;;2.33;2.13;;;10.70;99.90;;;;;;5060757;28;20203;-79
2023/10/26 06:36:06;;;;;;;1.75;1.65;;;10.70;99.90;;;;;;5045270;28;20208;-77
2023/10/26 06:38:34;;;;;;;2.40;2.20;;;10.60;99.90;;;;;;5052714;28;20231;-78
2023/10/26 06:41:02;;;;;;;1.98;1.80;;;10.60;99.90;;;;;;5052586;28;20211;-78
2023/10/26 06:43:30;;;;;;;2.00;1.90;;;10.70;99.90;;;;;;5052690;28;20227;-78
2023/10/26 06:46:00;;;;;;;4.40;2.10;;;10.80;99.90;;;;;;5055349;28;20204;-78
2023/10/26 06:48:28;;;;;;;2.03;1.92;;;10.80;99.90;;;;;;5057156;28;20311;-79
2023/10/26 06:51:01;;;;;;;3.88;2.35;;;10.90;99.90;;;;;;5052020;28;20210;-78
2023/10/26 06:53:29;;;;;;;2.00;1.90;;;11.00;99.90;;;;;;5052468;28;20200;-78
2023/10/26 06:55:58;;;;;;;4.15;2.40;;;11.00;99.90;;;;;;5052020;28;20218;-78
2023/10/26 06:58:27;;;;;;;3.67;2.60;;;11.10;99.90;;;;;;5052194;28;20239;-78
2023/10/26 07:00:55;;;;;;;2.20;2.00;;;11.00;99.90;;;;;;5051156;28;20208;-79
2023/10/26 07:03:25;;;;;;;2.05;1.52;;;11.00;99.90;;;;;;5051801;28;20234;-78
2023/10/26 07:05:53;;;;;;;4.63;1.92;;;11.00;99.90;;;;;;5051456;28;20626;-78
2023/10/26 07:08:21;;;;;;;2.28;2.08;;;10.90;99.90;;;;;;5051106;28;20236;-78
2023/10/26 07:10:49;;;;;;;1.52;1.42;;;10.90;99.90;;;;;;5052733;28;20286;-78
2023/10/26 07:13:17;;;;;;;1.98;1.50;;;11.00;99.90;;;;;;5058349;28;20200;-78
2023/10/26 07:15:46;;;;;;;1.58;1.25;;;11.00;99.90;;;;;;5051159;28;20216;-78
2023/10/26 07:18:15;;;;;;;1.67;1.58;;;11.00;99.90;;;;;;5051185;28;20227;-78
2023/10/26 07:20:48;;;;;;;1.55;1.30;;;11.00;99.90;;;;;;5051027;28;20211;-78
2023/10/26 07:23:17;;;;;;;1.60;1.50;;;11.00;99.90;;;;;;5051630;28;20729;-79
2023/10/26 07:25:45;;;;;;;1.33;1.23;;;11.00;99.90;;;;;;5054562;28;20215;-78
2023/10/26 07:28:16;;;;;;;2.03;1.80;;;11.00;99.90;;;;;;5051406;28;20219;-78
2023/10/26 07:30:44;;;;;;;2.22;1.55;;;11.00;99.90;;;;;;5050988;28;20212;-78
2023/10/26 07:33:12;;;;;;;1.60;1.50;;;11.00;99.90;;;;;;5043259;28;20659;-78
2023/10/26 07:35:41;;;;;;;2.05;1.90;;;11.10;99.90;;;;;;5051247;28;20208;-79
2023/10/26 07:38:10;;;;;;;1.25;1.15;;;11.20;99.90;;;;;;5050948;28;20260;-77
2023/10/26 07:41:00;;;;;;;2.00;1.65;;;11.20;99.90;;;;;;5050616;28;20298;-78
2023/10/26 07:43:28;;;;;;;1.30;1.20;;;11.10;99.90;;;;;;5051054;28;20220;-78
2023/10/26 07:45:56;;;;;;;1.60;1.50;;;11.30;99.90;;;;;;5050799;28;20227;-77
2023/10/26 07:48:24;;;;;;;2.33;1.65;;;11.40;99.90;;;;;;5050822;28;20310;-77
2023/10/26 07:50:52;;;;;;;1.92;1.83;;;11.60;99.90;;;;;;5050517;28;20208;-77
2023/10/26 07:53:21;;;;;;;2.00;1.90;;;11.80;99.90;;;;;;5050750;28;20212;-77
2023/10/26 07:55:50;;;;;;;2.08;1.73;;;12.00;99.90;;;;;;5050524;28;20208;-78
2023/10/26 07:58:18;;;;;;;1.88;1.77;;;12.10;99.90;;;;;;5050591;28;20234;-76
2023/10/26 08:00:46;;;;;;;1.40;1.30;;;12.30;99.90;;;;;;5051007;28;20207;-78
2023/10/26 08:03:14;;;;;;;1.65;1.55;;;12.40;99.90;;;;;;5059030;28;20223;-77
2023/10/26 08:05:42;;;;;;;1.90;1.40;;;12.60;99.90;;;;;;5051120;28;20211;-78
2023/10/26 08:08:10;;;;;;;1.50;1.40;;;12.70;99.90;;;;;;5050245;28;20231;-77
2023/10/26 08:10:39;;;;;;;1.63;1.52;;;12.60;99.90;;;;;;5050478;28;20196;-77
2023/10/26 08:13:08;;;;;;;2.88;1.35;;;12.70;99.90;;;;;;5050256;28;20645;-79
2023/10/26 08:15:35;;;;;;;1.67;1.23;;;12.80;99.90;;;;;;5050740;28;20533;-78
2023/10/26 08:18:25;;;;;;;0.85;0.85;;;12.80;99.90;;;;;;5043601;28;20393;-77
2023/10/26 08:20:54;;;;;;;1.10;0.90;;;12.60;99.90;;;;;;5050173;28;20195;-77
2023/10/26 08:23:22;;;;;;;1.23;1.13;;;12.50;99.90;;;;;;5050468;28;20216;-80
2023/10/26 08:25:51;;;;;;;1.30;1.17;;;12.30;99.90;;;;;;5050453;28;20211;-77
2023/10/26 08:28:20;;;;;;;1.08;1.02;;;12.30;99.90;;;;;;5050113;28;20227;-77
2023/10/26 08:30:49;;;;;;;1.27;1.17;;;12.20;99.90;;;;;;5050381;28;20204;-77
2023/10/26 08:33:17;;;;;;;1.67;1.58;;;12.20;99.90;;;;;;5051417;28;20214;-77
2023/10/26 08:35:49;;;;;;;1.15;1.05;;;12.20;99.90;;;;;;5054451;28;20285;-77
2023/10/26 08:38:17;;;;;;;1.20;1.10;;;12.20;99.90;;;;;;5046289;28;20220;-76
2023/10/26 08:40:51;;;;;;;1.38;1.27;;;12.20;99.90;;;;;;5054345;28;20208;-78
2023/10/26 08:43:20;;;;;;;1.20;1.10;;;12.30;99.90;;;;;;5046495;28;20299;-79
2023/10/26 08:45:49;;;;;;;1.08;0.90;;;12.40;99.90;;;;;;5054172;28;20214;-78
2023/10/26 08:48:18;;;;;;;2.03;1.20;;;12.50;99.90;;;;;;5045553;28;20246;-78
2023/10/26 08:50:47;;;;;;;1.48;1.23;;;12.60;99.90;;;;;;5053949;28;20215;-78
2023/10/26 08:53:15;;;;;;;1.02;0.93;;;12.60;99.90;;;;;;5036052;28;20298;-77
2023/10/26 08:55:45;;;;;;;1.40;1.30;;;12.50;99.90;;;;;;5054168;28;20200;-77
2023/10/26 08:58:15;;;;;;;1.30;1.20;;;12.80;99.90;;;;;;5056556;28;20595;-77
2023/10/26 09:00:42;;;;;;;1.45;0.95;;;12.80;99.90;;;;;;5058396;28;20196;-77
2023/10/26 09:03:11;;;;;;;1.15;1.05;;;13.20;99.90;;;;;;5056165;28;20294;-78
2023/10/26 09:05:52;;;;;;;1.15;1.05;;;13.60;99.90;;;;;;5059199;28;20223;-77
2023/10/26 09:08:22;;;;;;;1.10;1.00;;;13.90;99.90;;;;;;5061494;28;20247;-79
2023/10/26 09:10:51;;;;;;;2.80;1.30;;;14.20;99.90;;;;;;5053768;28;20207;-77
2023/10/26 09:13:25;;;;;;;1.13;1.05;;;14.50;99.90;;;;;;5045793;28;20254;-77
2023/10/26 09:15:57;;;;;;;1.17;1.08;;;14.20;99.90;;;;;;5053702;28;20273;-79
2023/10/26 09:18:27;;;;;;;1.38;1.02;;;14.20;99.90;;;;;;5053500;28;20228;-78
2023/10/26 09:21:06;;;;;;;1.10;1.00;;;14.10;99.90;;;;;;5053205;28;20202;-76
2023/10/26 09:23:35;;;;;;;1.40;1.30;;;14.40;99.90;;;;;;5053512;28;20678;-77
2023/10/26 09:26:04;;;;;;;1.15;1.05;;;14.80;99.90;;;;;;5053295;28;20196;-80
2023/10/26 09:28:52;;;;;;;1.35;1.25;;;14.80;99.90;;;;;;5053246;28;20232;-77
2023/10/26 09:31:22;;;;;;;1.08;0.98;;;14.80;99.90;;;;;;5053473;28;20200;-77
2023/10/26 09:33:51;;;;;;;1.13;1.02;;;14.90;99.90;;;;;;5053516;28;20204;-77
2023/10/26 09:36:21;;;;;;;0.80;0.70;;;15.10;99.90;;;;;;5053116;28;20215;-78
2023/10/26 09:38:49;;;;;;;1.20;1.05;;;15.20;99.90;;;;;;5053327;28;20203;-78
2023/10/26 09:41:20;;;;;;;1.08;0.98;;;15.00;99.90;;;;;;5052858;28;20212;-77
2023/10/26 09:43:48;;;;;;;1.00;0.90;;;14.60;99.90;;;;;;5053280;28;20596;-77
2023/10/26 09:46:18;;;;;;;1.35;0.90;;;14.40;99.90;;;;;;5052213;28;20584;-79
2023/10/26 09:48:46;;;;;;;0.93;0.93;;;14.20;99.90;;;;;;5061471;28;20307;-77
2023/10/26 09:51:16;;;;;;;1.08;0.98;;;14.00;99.90;;;;;;5053142;28;20544;-78
2023/10/26 09:53:45;;;;;;;0.90;0.70;;;13.80;99.90;;;;;;5067798;28;20241;-77
2023/10/26 09:56:21;;;;;;;0.70;0.68;;;13.60;99.90;;;;;;5053742;28;20231;-76
2023/10/26 09:58:51;;;;;;;0.90;0.90;;;13.50;99.90;;;;;;5052877;28;20232;-79
2023/10/26 10:01:35;;;;;;;1.10;1.00;;;13.40;99.90;;;;;;5052606;28;20287;-78
2023/10/26 10:04:04;;;;;;;1.08;0.98;;;13.20;99.90;;;;;;5052701;28;20311;-78
2023/10/26 10:06:52;;;;;;;1.30;1.20;;;13.10;99.90;;;;;;5052427;28;20204;-79
2023/10/26 10:09:22;;;;;;;1.35;1.25;;;13.10;99.90;;;;;;5052297;28;20226;-77
2023/10/26 10:12:23;;;;;;;1.00;0.90;;;12.90;99.90;;;;;;5053405;28;20291;-77
2023/10/26 10:15:00;;;;;;;0.75;0.75;;;12.90;99.90;;;;;;5042418;28;20227;-77
2023/10/26 10:18:13;;;;;;;1.05;0.90;;;12.90;99.90;;;;;;5047738;28;20321;-78
2023/10/26 10:20:42;;;;;;;0.77;0.77;;;12.90;99.90;;;;;;5046599;28;20204;-76
2023/10/26 10:23:28;;;;;;;1.00;0.90;;;12.90;99.90;;;;;;5052125;28;20216;-76
2023/10/26 10:25:59;;;;;;;2.08;1.05;;;12.80;99.90;;;;;;5052249;28;20218;-80
2023/10/26 10:28:52;;;;;;;0.90;0.80;;;12.70;99.90;;;;;;5058261;28;20200;-80
2023/10/26 10:31:24;;;;;;;0.80;0.77;;;12.70;99.90;;;;;;5051973;28;20211;-76
2023/10/26 10:34:05;;;;;;;1.10;1.08;;;12.70;99.90;;;;;;5052393;28;20569;-76
2023/10/26 10:37:08;;;;;;;1.20;1.10;;;12.70;99.90;;;;;;5045137;28;20200;-77
2023/10/26 10:39:36;;;;;;;1.65;1.13;;;12.70;99.90;;;;;;5045253;28;20227;-78
2023/10/26 10:42:09;;;;;;;1.48;1.27;;;12.70;99.90;;;;;;5051983;28;20251;-76
2023/10/26 10:44:38;;;;;;;1.10;1.00;;;12.70;99.90;;;;;;5051789;28;20223;-77
2023/10/26 10:47:07;;;;;;;0.93;0.93;;;12.70;99.90;;;;;;5052610;28;20311;-80
2023/10/26 10:49:37;;;;;;;0.80;0.80;;;12.70;99.90;;;;;;5058990;28;20690;-76
2023/10/26 10:52:13;;;;;;;0.80;0.80;;;12.70;99.90;;;;;;5051732;28;20200;-78
2023/10/26 10:54:49;;;;;;;1.15;1.05;;;12.60;99.90;;;;;;5051794;28;20282;-76
2023/10/26 10:57:31;;;;;;;0.85;0.85;;;12.60;99.90;;;;;;5044097;28;20231;-77
2023/10/26 10:59:59;;;;;;;0.75;0.60;;;12.60;99.90;;;;;;5051544;28;20227;-77
2023/10/26 11:02:27;;;;;;;0.80;0.80;;;12.60;99.90;;;;;;5052035;28;20217;-76
2023/10/26 11:04:59;;;;;;;0.80;0.80;;;12.60;99.90;;;;;;5051709;28;20577;-76
2023/10/26 11:07:44;;;;;;;1.23;0.80;;;12.50;99.90;;;;;;5053606;28;20239;-79
2023/10/26 11:10:13;;;;;;;0.80;0.80;;;12.50;99.90;;;;;;5051201;28;20212;-79
2023/10/26 11:12:49;;;;;;;1.10;1.00;;;12.40;99.90;;;;;;5051392;28;20330;-80
2023/10/26 11:15:17;;;;;;;1.40;1.30;;;12.30;99.90;;;;;;5050837;28;20696;-78
2023/10/26 11:17:47;;;;;;;0.90;0.80;;;12.40;99.90;;;;;;5051353;28;20223;-77
2023/10/26 11:20:34;;;;;;;1.52;0.90;;;12.50;99.90;;;;;;5051067;28;20208;-77
2023/10/26 11:23:02;;;;;;;1.38;1.00;;;12.50;99.90;;;;;;5051499;28;20195;-77
2023/10/26 11:25:30;;;;;;;0.73;0.73;;;12.40;99.90;;;;;;5042774;28;20712;-77
2023/10/26 11:27:58;;;;;;;0.80;0.80;;;12.30;99.90;;;;;;5051515;28;20224;-77
2023/10/26 11:30:27;;;;;;;0.90;0.80;;;12.40;99.90;;;;;;5051077;28;20204;-77
2023/10/26 11:32:55;;;;;;;0.80;0.80;;;12.50;99.90;;;;;;5051367;28;20210;-77
2023/10/26 11:35:25;;;;;;;2.13;1.20;;;12.60;99.90;;;;;;5050662;28;20204;-76
2023/10/26 11:38:05;;;;;;;1.08;0.93;;;12.60;99.90;;;;;;5054435;28;20223;-77
2023/10/26 11:40:34;;;;;;;1.00;0.90;;;12.70;99.90;;;;;;5062012;28;20227;-78
2023/10/26 11:43:03;;;;;;;0.85;0.85;;;12.70;99.90;;;;;;5050948;28;20238;-75
2023/10/26 11:45:48;;;;;;;1.33;1.10;;;12.80;99.90;;;;;;5050791;28;20596;-75
2023/10/26 11:48:26;;;;;;;1.00;0.90;;;12.70;99.90;;;;;;5051961;28;20309;-75
2023/10/26 11:50:55;;;;;;;0.80;0.80;;;12.60;99.90;;;;;;5055991;28;20195;-77
2023/10/26 11:53:26;;;;;;;1.17;1.00;;;12.50;99.90;;;;;;5050585;28;20208;-77
2023/10/26 11:55:54;;;;;;;1.00;1.00;;;12.40;99.90;;;;;;5050701;28;20282;-75
2023/10/26 11:58:22;;;;;;;1.00;0.90;;;12.30;99.90;;;;;;5050409;28;20228;-73
2023/10/26 12:00:50;;;;;;;1.10;1.00;;;12.30;99.90;;;;;;5050494;28;20261;-77
2023/10/26 12:03:18;;;;;;;1.10;1.00;;;12.30;99.90;;;;;;5050516;28;20246;-75
2023/10/26 12:05:46;;;;;;;1.45;1.08;;;12.20;99.90;;;;;;5055833;28;20223;-75
2023/10/26 12:08:14;;;;;;;1.50;1.40;;;12.10;99.90;;;;;;5052558;28;20625;-75
2023/10/26 12:10:46;;;;;;;2.35;1.30;;;12.10;99.90;;;;;;5055186;28;20672;-76
2023/10/26 12:13:14;;;;;;;1.35;1.25;;;12.10;99.90;;;;;;5061341;28;20273;-75
2023/10/26 12:15:42;;;;;;;1.30;1.20;;;12.10;99.90;;;;;;5050472;28;20200;-75
2023/10/26 12:18:11;;;;;;;1.40;1.10;;;12.20;99.90;;;;;;5058707;28;20231;-75
2023/10/26 12:20:39;;;;;;;1.15;1.05;;;12.30;99.90;;;;;;5054446;28;20712;-75
2023/10/26 12:23:07;;;;;;;1.58;1.48;;;12.40;99.90;;;;;;5054166;28;20214;-76
2023/10/26 12:25:35;;;;;;;1.20;1.10;;;12.50;99.90;;;;;;5050086;28;20212;-75
2023/10/26 12:28:04;;;;;;;1.20;1.10;;;12.60;99.90;;;;;;5058655;28;20277;-75
2023/10/26 12:30:50;;;;;;;1.65;1.25;;;12.90;99.90;;;;;;5043874;28;20203;-76
2023/10/26 12:33:19;;;;;;;1.45;1.35;;;12.90;99.90;;;;;;5051348;28;20208;-78
2023/10/26 12:35:47;;;;;;;1.00;0.90;;;13.10;99.90;;;;;;5065726;28;20200;-73
2023/10/26 12:38:15;;;;;;;1.58;1.40;;;13.20;99.90;;;;;;5050205;28;20239;-77
2023/10/26 12:40:44;;;;;;;1.75;1.65;;;13.40;99.90;;;;;;5049963;28;20208;-77
2023/10/26 12:43:13;;;;;;;1.88;1.40;;;13.50;99.90;;;;;;5050325;28;20204;-76
2023/10/26 12:45:41;;;;;;;1.73;1.40;;;13.70;99.90;;;;;;5042767;28;20231;-75
2023/10/26 12:48:09;;;;;;;1.55;1.42;;;13.70;99.90;;;;;;5050574;28;20227;-75
2023/10/26 12:50:37;;;;;;;1.52;1.38;;;13.70;99.90;;;;;;5049799;28;20657;-75
2023/10/26 12:53:05;;;;;;;1.60;1.13;;;13.80;99.90;;;;;;5058365;28;20215;-75
2023/10/26 12:55:34;;;;;;;1.40;1.30;;;13.80;99.90;;;;;;5050034;28;20289;-76
2023/10/26 12:58:02;;;;;;;1.50;1.35;;;13.80;99.90;;;;;;5057018;28;20227;-76
2023/10/26 13:00:32;;;;;;;1.70;1.42;;;13.80;99.90;;;;;;5059361;28;20214;-78
2023/10/26 13:03:00;;;;;;;1.48;1.38;;;13.80;99.90;;;;;;5050136;28;20204;-76